aviador You're here:

KVDF Decoded Metar

TAMPA/VANDENBURG in FL, USA
Report Time2017-08-24 00:35:00
UTC Time2017-08-24 00:58:42
Flight Rules vfr VFR
WindCalm
Visibility9999 m
Phenomena:Rain
Clouds:Scattered 070 Hf
Scattered 110 Hf
Expected CloudBase > 800 ft AGL from Temp-Dew spread
CeilingNone
Temp25°C (ISA +10)
Dew Point23°C (89% RH)
QNH1012 hPa
Density Alt1,588 ft
Elevation23 ft
Report Wrong Elevation
Raw Report
METAR KVDF 240035Z AUTO 00000KT 10SM RA SCT070 SCT110 25/23 A2988 RMK
AO2=

Extra information for KVDF:More info

Metar Taf Metar & Taf Last 4 Metars F.Rules Stats Wind Profile Meteogram Temp Stats Airport Information Weather charts Add Link Nearby VenuesMetar ALERT Operation Metar Decoded Social comments

AIRNAV info for KVDF